createdAt,value
2018-05-15T00:00:54.370Z,0
2018-05-15T00:01:54.933Z,0
2018-05-15T00:02:55.495Z,0
2018-05-15T00:03:56.036Z,0
2018-05-15T00:04:56.584Z,0
2018-05-15T00:05:57.134Z,0
2018-05-15T00:06:57.680Z,0
2018-05-15T00:07:58.230Z,0
2018-05-15T00:08:58.781Z,0
2018-05-15T00:09:59.333Z,0
2018-05-15T00:10:59.883Z,0
2018-05-15T00:12:00.431Z,0
2018-05-15T00:13:00.981Z,0
2018-05-15T00:14:01.535Z,0
2018-05-15T00:15:02.085Z,0
2018-05-15T00:16:02.633Z,0
2018-05-15T00:17:03.176Z,0
2018-05-15T00:18:03.726Z,0
2018-05-15T00:19:04.278Z,0
2018-05-15T00:20:04.823Z,0
2018-05-15T00:21:05.376Z,0
2018-05-15T00:22:05.928Z,0
2018-05-15T00:23:06.481Z,0
2018-05-15T00:24:07.027Z,0
2018-05-15T00:25:07.577Z,0
2018-05-15T00:26:08.124Z,0
2018-05-15T00:27:08.671Z,0
2018-05-15T00:28:09.224Z,0
2018-05-15T00:29:09.771Z,0
2018-05-15T00:30:10.321Z,0
2018-05-15T00:31:10.871Z,0
2018-05-15T00:32:11.425Z,0
2018-05-15T00:33:11.974Z,0
2018-05-15T00:34:12.521Z,0
2018-05-15T00:35:13.070Z,0
2018-05-15T00:36:13.616Z,0
2018-05-15T00:37:14.167Z,0
2018-05-15T00:38:14.714Z,0
2018-05-15T00:39:15.264Z,0
2018-05-15T00:40:15.812Z,0
2018-05-15T00:41:16.366Z,0
2018-05-15T00:42:16.914Z,0
2018-05-15T00:43:17.464Z,0
2018-05-15T00:44:18.070Z,0
2018-05-15T00:45:18.556Z,0
2018-05-15T00:46:19.106Z,0
2018-05-15T00:47:19.657Z,0
2018-05-15T00:48:20.211Z,0
2018-05-15T00:49:20.758Z,0
2018-05-15T00:50:21.302Z,0
2018-05-15T00:51:21.847Z,0
2018-05-15T00:52:22.396Z,0
2018-05-15T00:53:22.948Z,0
2018-05-15T00:54:23.497Z,0
2018-05-15T00:55:24.048Z,0
2018-05-15T00:56:24.600Z,0
2018-05-15T00:57:25.149Z,0
2018-05-15T00:58:25.694Z,0
2018-05-15T00:59:26.243Z,0
2018-05-15T01:00:26.797Z,0
2018-05-15T01:01:27.343Z,0
2018-05-15T01:02:27.892Z,0
2018-05-15T01:03:28.437Z,0
2018-05-15T01:04:28.990Z,0
2018-05-15T01:05:29.536Z,0
2018-05-15T01:06:30.082Z,0
2018-05-15T01:07:30.637Z,0
2018-05-15T01:08:31.187Z,0
2018-05-15T01:09:31.731Z,0
2018-05-15T01:10:32.273Z,0
2018-05-15T01:11:32.819Z,0
2018-05-15T01:12:33.369Z,0
2018-05-15T01:13:33.914Z,0
2018-05-15T01:14:34.464Z,0
2018-05-15T01:15:35.014Z,0
2018-05-15T01:16:35.567Z,0
2018-05-15T01:17:36.116Z,0
2018-05-15T01:18:36.665Z,0
2018-05-15T01:19:37.209Z,0
2018-05-15T01:20:37.757Z,0
2018-05-15T01:21:38.306Z,0
2018-05-15T01:22:38.861Z,0
2018-05-15T01:23:39.416Z,0
2018-05-15T01:24:39.952Z,0
2018-05-15T01:25:40.502Z,0
2018-05-15T01:26:41.052Z,0
2018-05-15T01:27:41.598Z,0
2018-05-15T01:28:42.154Z,0
2018-05-15T01:29:42.700Z,0
2018-05-15T01:30:43.245Z,0
2018-05-15T01:31:43.795Z,0
2018-05-15T01:32:44.343Z,0
2018-05-15T01:33:44.893Z,0
2018-05-15T01:34:45.441Z,0
2018-05-15T01:35:45.992Z,0
2018-05-15T01:36:46.544Z,0
2018-05-15T01:37:47.089Z,0
2018-05-15T01:38:47.639Z,0
2018-05-15T01:39:48.187Z,0
2018-05-15T01:40:48.735Z,0
2018-05-15T01:41:49.284Z,0
2018-05-15T01:42:49.832Z,0
2018-05-15T01:43:50.380Z,0
2018-05-15T01:44:50.931Z,0
2018-05-15T01:45:51.475Z,0
2018-05-15T01:46:52.029Z,0
2018-05-15T01:47:52.576Z,0
2018-05-15T01:48:53.129Z,0
2018-05-15T01:49:53.674Z,0
2018-05-15T01:50:54.216Z,0
2018-05-15T01:51:54.772Z,0
2018-05-15T01:52:55.316Z,0
2018-05-15T01:53:55.868Z,0
2018-05-15T01:54:56.419Z,0
2018-05-15T01:55:56.966Z,0
2018-05-15T01:56:57.506Z,0
2018-05-15T01:57:58.057Z,0
2018-05-15T01:58:58.604Z,0
2018-05-15T01:59:59.154Z,0
2018-05-15T02:00:59.705Z,0
2018-05-15T02:02:00.255Z,0
2018-05-15T02:03:00.807Z,0
2018-05-15T02:04:01.353Z,0
2018-05-15T02:05:01.903Z,0
2018-05-15T02:06:02.454Z,0
2018-05-15T02:07:03.004Z,0
2018-05-15T02:08:03.552Z,0
2018-05-15T02:09:04.102Z,0
2018-05-15T02:10:04.649Z,0
2018-05-15T02:11:05.196Z,0
2018-05-15T02:12:05.741Z,0
2018-05-15T02:13:06.293Z,0
2018-05-15T02:14:06.842Z,0
2018-05-15T02:15:07.390Z,0
2018-05-15T02:16:07.995Z,0
2018-05-15T02:17:08.481Z,0
2018-05-15T02:18:09.031Z,0
2018-05-15T02:19:09.581Z,0
2018-05-15T02:20:10.133Z,0
2018-05-15T02:21:10.681Z,0
2018-05-15T02:22:11.232Z,0
2018-05-15T02:23:11.779Z,0
2018-05-15T02:24:12.327Z,0
2018-05-15T02:25:12.877Z,0
2018-05-15T02:26:13.422Z,0
2018-05-15T02:27:13.978Z,0
2018-05-15T02:28:14.523Z,0
2018-05-15T02:29:15.064Z,0
2018-05-15T02:30:15.614Z,0
2018-05-15T02:31:16.158Z,0
2018-05-15T02:32:16.712Z,0
2018-05-15T02:33:17.252Z,0
2018-05-15T02:34:17.804Z,0
2018-05-15T02:35:18.350Z,0
2018-05-15T02:36:18.901Z,0
2018-05-15T02:37:19.442Z,0
2018-05-15T02:38:19.995Z,0
2018-05-15T02:39:20.543Z,0
2018-05-15T02:40:21.094Z,0
2018-05-15T02:41:21.641Z,0
2018-05-15T02:42:22.193Z,0
2018-05-15T02:43:22.741Z,0
2018-05-15T02:44:23.289Z,0
2018-05-15T02:45:23.839Z,0
2018-05-15T02:46:24.384Z,0
2018-05-15T02:47:24.932Z,0
2018-05-15T02:48:25.478Z,0
2018-05-15T02:49:26.028Z,0
2018-05-15T02:50:26.577Z,0
2018-05-15T02:51:27.122Z,0
2018-05-15T02:52:27.670Z,0
2018-05-15T02:53:28.214Z,0
2018-05-15T02:54:28.769Z,0
2018-05-15T02:55:29.312Z,0
2018-05-15T02:56:29.860Z,0
2018-05-15T02:57:30.402Z,0
2018-05-15T02:58:30.949Z,0
2018-05-15T02:59:31.501Z,0
2018-05-15T03:00:32.051Z,0
2018-05-15T03:01:32.604Z,0
2018-05-15T03:02:33.143Z,0
2018-05-15T03:03:33.691Z,0
2018-05-15T03:04:34.241Z,0
2018-05-15T03:05:34.789Z,0
2018-05-15T03:06:35.339Z,0
2018-05-15T03:07:35.887Z,0
2018-05-15T03:08:36.431Z,0
2018-05-15T03:09:36.984Z,0
2018-05-15T03:10:37.531Z,0
2018-05-15T03:11:38.122Z,0
2018-05-15T03:12:38.631Z,0
2018-05-15T03:13:39.181Z,0
2018-05-15T03:14:39.728Z,0
2018-05-15T03:15:40.278Z,0
2018-05-15T03:16:40.822Z,0
2018-05-15T03:17:41.373Z,0
2018-05-15T03:18:41.921Z,0
2018-05-15T03:19:42.472Z,0
2018-05-15T03:20:43.023Z,0
2018-05-15T03:21:43.569Z,0
2018-05-15T03:22:44.123Z,0
2018-05-15T03:23:44.672Z,0
2018-05-15T03:24:45.221Z,0
2018-05-15T03:25:45.770Z,0
2018-05-15T03:26:46.319Z,0
2018-05-15T03:27:46.874Z,0
2018-05-15T03:28:47.424Z,0
2018-05-15T03:29:47.976Z,0
2018-05-15T03:30:48.527Z,0
2018-05-15T03:31:49.076Z,0
2018-05-15T03:32:49.630Z,0
2018-05-15T03:33:50.184Z,0
2018-05-15T03:34:50.732Z,0
2018-05-15T03:35:51.284Z,0
2018-05-15T03:36:51.834Z,0
2018-05-15T03:37:52.380Z,0
2018-05-15T03:38:52.933Z,0
2018-05-15T03:39:53.474Z,0
2018-05-15T03:40:54.023Z,0
2018-05-15T03:41:54.575Z,0
2018-05-15T03:42:55.118Z,0
2018-05-15T03:43:55.666Z,5
2018-05-15T03:44:56.213Z,5
2018-05-15T03:45:56.763Z,5
2018-05-15T03:46:57.314Z,5
2018-05-15T03:47:57.865Z,5
2018-05-15T03:48:58.414Z,5
2018-05-15T03:49:58.961Z,5
2018-05-15T03:50:59.515Z,10
2018-05-15T03:52:00.066Z,10
2018-05-15T03:53:00.614Z,10
2018-05-15T03:54:01.163Z,10
2018-05-15T03:55:01.709Z,10
2018-05-15T03:56:02.258Z,10
2018-05-15T03:57:02.810Z,10
2018-05-15T03:58:03.354Z,10
2018-05-15T03:59:03.908Z,15
2018-05-15T04:00:04.465Z,15
2018-05-15T04:01:05.096Z,15
2018-05-15T04:02:05.557Z,15
2018-05-15T04:03:06.101Z,20
2018-05-15T04:04:06.654Z,20
2018-05-15T04:05:07.206Z,20
2018-05-15T04:06:07.753Z,20
2018-05-15T04:07:08.301Z,20
2018-05-15T04:08:08.854Z,20
2018-05-15T04:09:09.407Z,25
2018-05-15T04:10:09.959Z,25
2018-05-15T04:11:10.538Z,25
2018-05-15T04:12:11.060Z,25
2018-05-15T04:13:11.617Z,30
2018-05-15T04:14:12.164Z,30
2018-05-15T04:15:12.712Z,30
2018-05-15T04:16:13.267Z,30
2018-05-15T04:17:13.824Z,30
2018-05-15T04:18:14.379Z,35
2018-05-15T04:19:14.937Z,40
2018-05-15T04:20:15.495Z,40
2018-05-15T04:21:16.048Z,40
2018-05-15T04:22:16.603Z,40
2018-05-15T04:23:17.149Z,40
2018-05-15T04:24:17.702Z,40
2018-05-15T04:25:18.247Z,40
2018-05-15T04:26:18.806Z,45
2018-05-15T04:27:19.362Z,45
2018-05-15T04:28:19.921Z,50
2018-05-15T04:29:20.465Z,50
2018-05-15T04:30:21.090Z,55
2018-05-15T04:31:21.567Z,55
2018-05-15T04:32:22.121Z,55
2018-05-15T04:33:22.676Z,65
2018-05-15T04:34:23.226Z,65
2018-05-15T04:35:23.822Z,60
2018-05-15T04:36:24.329Z,60
2018-05-15T04:37:24.880Z,55
2018-05-15T04:38:25.429Z,55
2018-05-15T04:39:25.981Z,55
2018-05-15T04:40:26.533Z,60
2018-05-15T04:41:27.085Z,60
2018-05-15T04:42:27.635Z,60
2018-05-15T04:43:28.245Z,70
2018-05-15T04:44:28.731Z,85
2018-05-15T04:45:29.280Z,95
2018-05-15T04:46:29.842Z,100
2018-05-15T04:47:30.390Z,100
2018-05-15T04:48:30.942Z,95
2018-05-15T04:49:31.491Z,100
2018-05-15T04:50:32.041Z,95
2018-05-15T04:51:32.596Z,105
2018-05-15T04:52:33.152Z,110
2018-05-15T04:53:33.706Z,115
2018-05-15T04:54:34.261Z,125
2018-05-15T04:55:34.825Z,125
2018-05-15T04:56:35.364Z,125
2018-05-15T04:57:35.915Z,120
2018-05-15T04:58:36.470Z,120
2018-05-15T04:59:37.029Z,115
2018-05-15T05:00:37.785Z,115
2018-05-15T05:01:38.340Z,125
2018-05-15T05:02:38.894Z,125
2018-05-15T05:03:39.447Z,120
2018-05-15T05:04:39.996Z,125
2018-05-15T05:05:40.547Z,130
2018-05-15T05:06:41.101Z,130
2018-05-15T05:07:41.650Z,130
2018-05-15T05:08:42.225Z,135
2018-05-15T05:09:42.753Z,150
2018-05-15T05:10:43.301Z,170
2018-05-15T05:11:43.914Z,180
2018-05-15T05:12:44.409Z,190
2018-05-15T05:13:44.959Z,210
2018-05-15T05:14:45.515Z,205
2018-05-15T05:15:46.065Z,225
2018-05-15T05:16:46.620Z,235
2018-05-15T05:17:47.176Z,230
2018-05-15T05:18:47.734Z,235
2018-05-15T05:19:48.294Z,265
2018-05-15T05:20:48.841Z,240
2018-05-15T05:21:49.456Z,230
2018-05-15T05:22:50.008Z,230
2018-05-15T05:23:50.556Z,210
2018-05-15T05:24:51.111Z,210
2018-05-15T05:25:51.664Z,220
2018-05-15T05:26:52.221Z,225
2018-05-15T05:27:52.776Z,240
2018-05-15T05:28:53.332Z,230
2018-05-15T05:29:53.883Z,255
2018-05-15T05:30:54.440Z,270
2018-05-15T05:31:54.998Z,280
2018-05-15T05:32:55.554Z,280
2018-05-15T05:33:56.109Z,285
2018-05-15T05:34:56.664Z,290
2018-05-15T05:35:57.219Z,280
2018-05-15T05:36:57.779Z,285
2018-05-15T05:37:58.331Z,305
2018-05-15T05:38:58.885Z,305
2018-05-15T05:39:59.481Z,320
2018-05-15T05:40:59.994Z,315
2018-05-15T05:42:00.552Z,330
2018-05-15T05:43:01.105Z,345
2018-05-15T05:44:01.661Z,320
2018-05-15T05:45:02.219Z,315
2018-05-15T05:46:02.771Z,315
2018-05-15T05:47:03.324Z,325
2018-05-15T05:48:03.878Z,340
2018-05-15T05:49:04.439Z,340
2018-05-15T05:50:04.989Z,345
2018-05-15T05:51:05.540Z,360
2018-05-15T05:52:06.138Z,365
2018-05-15T05:53:06.650Z,365
2018-05-15T05:54:07.216Z,345
2018-05-15T05:55:07.768Z,370
2018-05-15T05:56:08.322Z,340
2018-05-15T05:57:08.877Z,375
2018-05-15T05:58:09.432Z,430
2018-05-15T05:59:09.992Z,445
2018-05-15T06:00:10.550Z,455
2018-05-15T06:01:11.109Z,395
2018-05-15T06:02:11.664Z,400
2018-05-15T06:03:12.221Z,360
2018-05-15T06:04:12.773Z,315
2018-05-15T06:05:13.330Z,335
2018-05-15T06:06:13.885Z,345
2018-05-15T06:07:14.480Z,345
2018-05-15T06:08:15.004Z,350
2018-05-15T06:09:15.613Z,385
2018-05-15T06:10:16.169Z,435
2018-05-15T06:11:16.734Z,525
2018-05-15T06:12:17.288Z,630
2018-05-15T06:13:17.841Z,650
2018-05-15T06:14:18.470Z,560
2018-05-15T06:15:18.949Z,560
2018-05-15T06:16:19.512Z,555
2018-05-15T06:17:20.065Z,510
2018-05-15T06:18:20.622Z,470
2018-05-15T06:19:21.178Z,470
2018-05-15T06:20:21.739Z,520
2018-05-15T06:21:22.303Z,530
2018-05-15T06:22:22.861Z,740
2018-05-15T06:23:23.424Z,540
2018-05-15T06:24:23.982Z,510
2018-05-15T06:25:24.544Z,590
2018-05-15T06:26:25.115Z,640
2018-05-15T06:27:25.717Z,625
2018-05-15T06:28:26.241Z,715
2018-05-15T06:29:26.811Z,750
2018-05-15T06:30:27.422Z,620
2018-05-15T06:31:27.984Z,645
2018-05-15T06:32:28.633Z,865
2018-05-15T06:33:29.107Z,910
2018-05-15T06:34:29.670Z,910
2018-05-15T06:35:30.234Z,920
2018-05-15T06:36:30.797Z,930
2018-05-15T06:37:31.359Z,915
2018-05-15T06:38:31.947Z,870
2018-05-15T06:39:32.493Z,900
2018-05-15T06:40:33.059Z,910
2018-05-15T06:41:33.623Z,895
2018-05-15T06:42:34.195Z,910
2018-05-15T06:43:34.758Z,905
2018-05-15T06:44:35.388Z,905
2018-05-15T06:45:35.954Z,895
2018-05-15T06:46:36.528Z,920
2018-05-15T06:47:37.097Z,900
2018-05-15T06:48:37.668Z,915
2018-05-15T06:49:38.229Z,905
2018-05-15T06:50:38.803Z,910
2018-05-15T06:51:39.419Z,930
2018-05-15T06:52:39.995Z,950
2018-05-15T06:53:40.565Z,940
2018-05-15T06:54:41.160Z,960
2018-05-15T06:55:41.741Z,945
2018-05-15T06:56:42.351Z,980
2018-05-15T06:57:42.876Z,975
2018-05-15T06:58:43.444Z,975
2018-05-15T06:59:44.013Z,985
2018-05-15T07:00:44.579Z,980
2018-05-15T07:01:45.180Z,995
2018-05-15T07:02:45.722Z,995
2018-05-15T07:03:46.288Z,1005
2018-05-15T07:04:46.861Z,1010
2018-05-15T07:05:47.447Z,1000
2018-05-15T07:06:48.014Z,1020
2018-05-15T07:07:48.605Z,1045
2018-05-15T07:08:49.168Z,1055
2018-05-15T07:09:49.739Z,1060
2018-05-15T07:10:50.311Z,1070
2018-05-15T07:11:50.886Z,1065
2018-05-15T07:12:51.465Z,1075
2018-05-15T07:13:52.037Z,1095
2018-05-15T07:14:52.619Z,1085
2018-05-15T07:15:53.198Z,1110
2018-05-15T07:16:53.774Z,1115
2018-05-15T07:17:54.344Z,1120
2018-05-15T07:18:54.919Z,1125
2018-05-15T07:19:55.490Z,1125
2018-05-15T07:20:56.066Z,1155
2018-05-15T07:21:56.640Z,1160
2018-05-15T07:22:57.216Z,1185
2018-05-15T07:23:57.790Z,1205
2018-05-15T07:24:58.365Z,1195
2018-05-15T07:25:58.939Z,1195
2018-05-15T07:26:59.508Z,1195
2018-05-15T07:28:00.088Z,1210
2018-05-15T07:29:00.657Z,1225
2018-05-15T07:30:01.231Z,1220
2018-05-15T07:31:01.809Z,1230
2018-05-15T07:32:02.373Z,1245
2018-05-15T07:33:03.005Z,1260
2018-05-15T07:34:03.525Z,1265
2018-05-15T07:35:04.107Z,1255
2018-05-15T07:36:04.680Z,1275
2018-05-15T07:37:05.256Z,1285
2018-05-15T07:38:05.822Z,1295
2018-05-15T07:39:06.397Z,1305
2018-05-15T07:40:06.974Z,1315
2018-05-15T07:41:07.737Z,1335
2018-05-15T07:42:08.119Z,1320
2018-05-15T07:43:08.690Z,1320
2018-05-15T07:44:09.270Z,1335
2018-05-15T07:45:09.840Z,1370
2018-05-15T07:46:10.418Z,1390
2018-05-15T07:47:10.980Z,1365
2018-05-15T07:48:11.607Z,1380
2018-05-15T07:49:12.134Z,1390
2018-05-15T07:50:12.709Z,1405
2018-05-15T07:51:13.333Z,1410
2018-05-15T07:52:13.906Z,1415
2018-05-15T07:53:14.477Z,1415
2018-05-15T07:54:15.051Z,1410
2018-05-15T07:55:15.620Z,1415
2018-05-15T07:56:16.194Z,1425
2018-05-15T07:57:16.773Z,1425
2018-05-15T07:58:17.357Z,1430
2018-05-15T07:59:17.932Z,1435
2018-05-15T08:00:18.507Z,1450
2018-05-15T08:01:19.076Z,1445
2018-05-15T08:02:19.770Z,1440
2018-05-15T08:03:20.339Z,1455
2018-05-15T08:04:20.999Z,1480
2018-05-15T08:05:21.496Z,1500
2018-05-15T08:06:22.076Z,1505
2018-05-15T08:07:22.650Z,1520
2018-05-15T08:08:23.221Z,1530
2018-05-15T08:09:23.795Z,1525
2018-05-15T08:10:24.372Z,1505
2018-05-15T08:11:24.949Z,1510
2018-05-15T08:12:25.514Z,1505
2018-05-15T08:13:26.101Z,1505
2018-05-15T08:14:26.679Z,1520
2018-05-15T08:15:27.251Z,1520
2018-05-15T08:16:27.905Z,1535
2018-05-15T08:17:28.396Z,1540
2018-05-15T08:18:28.976Z,1545
2018-05-15T08:19:29.548Z,1540
2018-05-15T08:20:30.116Z,1545
2018-05-15T08:21:30.684Z,1570
2018-05-15T08:22:31.288Z,1585
2018-05-15T08:23:31.821Z,1585
2018-05-15T08:24:32.400Z,1585
2018-05-15T08:25:32.984Z,1605
2018-05-15T08:26:33.576Z,1605
2018-05-15T08:27:34.147Z,1615
2018-05-15T08:28:34.726Z,1615
2018-05-15T08:29:35.309Z,1620
2018-05-15T08:30:35.880Z,1625
2018-05-15T08:31:36.454Z,1630
2018-05-15T08:32:37.028Z,1630
2018-05-15T08:33:37.607Z,1625
2018-05-15T08:34:38.177Z,1625
2018-05-15T08:35:38.744Z,1655
2018-05-15T08:36:39.308Z,1690
2018-05-15T08:37:39.904Z,1690
2018-05-15T08:38:40.451Z,1680
2018-05-15T08:39:41.025Z,1685
2018-05-15T08:40:41.600Z,1715
2018-05-15T08:41:42.180Z,1730
2018-05-15T08:42:42.742Z,1715
2018-05-15T08:43:43.311Z,1735
2018-05-15T08:44:43.893Z,1740
2018-05-15T08:45:44.468Z,1715
2018-05-15T08:46:45.040Z,1745
2018-05-15T08:47:45.612Z,1770
2018-05-15T08:48:46.182Z,1790
2018-05-15T08:49:46.757Z,1805
2018-05-15T08:50:47.322Z,1800
2018-05-15T08:51:47.941Z,1800
2018-05-15T08:52:48.524Z,1815
2018-05-15T08:53:49.099Z,1825
2018-05-15T08:54:49.676Z,1845
2018-05-15T08:55:50.253Z,1860
2018-05-15T08:56:50.830Z,1885
2018-05-15T08:57:51.401Z,1895
2018-05-15T08:58:51.979Z,1915
2018-05-15T08:59:52.561Z,1905
2018-05-15T09:00:53.123Z,1930
2018-05-15T09:01:53.702Z,1935
2018-05-15T09:02:54.269Z,1980
2018-05-15T09:03:54.858Z,1995
2018-05-15T09:04:55.437Z,2005
2018-05-15T09:05:56.013Z,2005
2018-05-15T09:06:56.587Z,1980
2018-05-15T09:07:57.161Z,1990
2018-05-15T09:08:57.726Z,1985
2018-05-15T09:09:58.319Z,2005
2018-05-15T09:10:58.901Z,2020
2018-05-15T09:11:59.476Z,2020
2018-05-15T09:13:00.080Z,2030
2018-05-15T09:14:00.678Z,2055
2018-05-15T09:15:01.251Z,2080
2018-05-15T09:16:01.820Z,2120
2018-05-15T09:17:02.396Z,2110
2018-05-15T09:18:02.968Z,2100
2018-05-15T09:19:03.545Z,2110
2018-05-15T09:20:04.114Z,2105
2018-05-15T09:21:04.692Z,2140
2018-05-15T09:22:05.265Z,2170
2018-05-15T09:23:05.841Z,2180
2018-05-15T09:24:06.412Z,2200
2018-05-15T09:25:06.993Z,2220
2018-05-15T09:26:07.563Z,2200
2018-05-15T09:27:08.132Z,2215
2018-05-15T09:28:08.704Z,2230
2018-05-15T09:29:09.275Z,2250
2018-05-15T09:30:09.848Z,2260
2018-05-15T09:31:10.413Z,2240
2018-05-15T09:32:10.990Z,2220
2018-05-15T09:33:11.568Z,2250
2018-05-15T09:34:12.156Z,2305
2018-05-15T09:35:12.733Z,2315
2018-05-15T09:36:13.306Z,2285
2018-05-15T09:37:13.928Z,2260
2018-05-15T09:38:14.499Z,2280
2018-05-15T09:39:15.080Z,2310
2018-05-15T09:40:15.649Z,2320
2018-05-15T09:41:16.220Z,2315
2018-05-15T09:42:16.800Z,2345
2018-05-15T09:43:17.373Z,2345
2018-05-15T09:44:17.942Z,2335
2018-05-15T09:45:18.517Z,2350
2018-05-15T09:46:19.115Z,2400
2018-05-15T09:47:19.709Z,2400
2018-05-15T09:48:20.316Z,2360
2018-05-15T09:49:20.932Z,2360
2018-05-15T09:50:21.526Z,2370
2018-05-15T09:51:22.100Z,2410
2018-05-15T09:52:22.737Z,2425
2018-05-15T09:53:23.971Z,2395
2018-05-15T09:54:24.578Z,2395
2018-05-15T09:55:25.148Z,2425
2018-05-15T09:56:25.753Z,2435
2018-05-15T09:57:26.381Z,2425
2018-05-15T09:58:26.959Z,2400
2018-05-15T09:59:27.563Z,2375
2018-05-15T10:00:28.188Z,2385
2018-05-15T10:01:28.775Z,2370
2018-05-15T10:02:29.387Z,2370
2018-05-15T10:03:30.013Z,2365
2018-05-15T10:04:30.645Z,2380
2018-05-15T10:05:31.246Z,2370
2018-05-15T10:06:31.808Z,2345
2018-05-15T10:07:32.434Z,2320
2018-05-15T10:08:33.006Z,2290
2018-05-15T10:09:33.612Z,2290
2018-05-15T10:10:34.308Z,2305
2018-05-15T10:11:34.987Z,2315
2018-05-15T10:12:35.666Z,2300
2018-05-15T10:13:36.272Z,2325
2018-05-15T10:14:36.911Z,2360
2018-05-15T10:15:37.551Z,2385
2018-05-15T10:16:38.168Z,2370
2018-05-15T10:17:38.812Z,2400
2018-05-15T10:18:39.469Z,2440
2018-05-15T10:19:40.137Z,2470
2018-05-15T10:20:40.773Z,2490
2018-05-15T10:21:41.389Z,2415
2018-05-15T10:22:42.040Z,2240
2018-05-15T10:23:42.689Z,2190
2018-05-15T10:24:43.289Z,2430
2018-05-15T10:25:43.990Z,2475
2018-05-15T10:26:44.756Z,2495
2018-05-15T10:27:45.505Z,2445
2018-05-15T10:28:46.246Z,2405
2018-05-15T10:29:46.922Z,2460
2018-05-15T10:30:47.596Z,2510
2018-05-15T10:31:48.219Z,2525
2018-05-15T10:32:48.922Z,2540
2018-05-15T10:33:49.596Z,2585
2018-05-15T10:34:50.217Z,2580
2018-05-15T10:35:50.923Z,2550
2018-05-15T10:36:51.611Z,2550
2018-05-15T10:37:52.234Z,2560
2018-05-15T10:38:52.861Z,2580
2018-05-15T10:39:53.544Z,2635
2018-05-15T10:40:54.223Z,2625
2018-05-15T10:41:54.911Z,2615
2018-05-15T10:42:55.619Z,2625
2018-05-15T10:43:56.425Z,2655
2018-05-15T10:44:57.063Z,2705
2018-05-15T10:45:57.704Z,2735
2018-05-15T10:46:58.385Z,2780
2018-05-15T10:47:59.071Z,2740
2018-05-15T10:48:59.743Z,2750
2018-05-15T10:50:00.404Z,2730
2018-05-15T10:51:01.001Z,2750
2018-05-15T10:52:01.598Z,2780
2018-05-15T10:53:02.199Z,2820
2018-05-15T10:54:02.820Z,2830
2018-05-15T10:55:03.430Z,2830
2018-05-15T10:56:04.084Z,2885
2018-05-15T10:57:04.707Z,2900
2018-05-15T10:58:05.349Z,2890
2018-05-15T10:59:05.991Z,2870
2018-05-15T11:00:06.615Z,2945
2018-05-15T11:01:07.244Z,2995
2018-05-15T11:02:07.846Z,2960
2018-05-15T11:03:08.516Z,2940
2018-05-15T11:04:09.195Z,2900
2018-05-15T11:05:09.832Z,2925
2018-05-15T11:06:10.558Z,2905
2018-05-15T11:07:11.207Z,2890
2018-05-15T11:08:11.833Z,2885
2018-05-15T11:09:12.460Z,2920
2018-05-15T11:10:13.072Z,3055
2018-05-15T11:11:13.691Z,2995
2018-05-15T11:12:14.323Z,2955
2018-05-15T11:13:14.952Z,2815
2018-05-15T11:14:15.534Z,2910
2018-05-15T11:15:16.149Z,3040
2018-05-15T11:16:16.742Z,3040
2018-05-15T11:17:17.329Z,3055
2018-05-15T11:18:17.945Z,3120
2018-05-15T11:19:18.550Z,3110
2018-05-15T11:20:19.157Z,3090
2018-05-15T11:21:19.820Z,3115
2018-05-15T11:22:20.439Z,3135
2018-05-15T11:23:21.065Z,3045
2018-05-15T11:24:21.674Z,3075
2018-05-15T11:25:22.275Z,3205
2018-05-15T11:26:22.892Z,3220
2018-05-15T11:27:23.492Z,3225
2018-05-15T11:28:24.085Z,3145
2018-05-15T11:29:24.698Z,3220
2018-05-15T11:30:25.405Z,3320
2018-05-15T11:31:25.927Z,3305
2018-05-15T11:32:26.509Z,3025
2018-05-15T11:33:27.102Z,3115
2018-05-15T11:34:27.703Z,3110
2018-05-15T11:35:28.306Z,895
2018-05-15T11:36:28.891Z,845
2018-05-15T11:37:29.458Z,825
2018-05-15T11:38:30.032Z,900
2018-05-15T11:39:30.639Z,3120
2018-05-15T11:40:31.246Z,3130
2018-05-15T11:41:31.879Z,3155
2018-05-15T11:42:32.390Z,3145
2018-05-15T11:43:32.973Z,3240
2018-05-15T11:44:33.586Z,3275
2018-05-15T11:45:34.158Z,3350
2018-05-15T11:46:34.778Z,3360
2018-05-15T11:47:35.517Z,3390
2018-05-15T11:48:36.406Z,3385
2018-05-15T11:49:37.398Z,3445
2018-05-15T11:50:37.909Z,3525
2018-05-15T11:51:38.203Z,3485
2018-05-15T11:52:38.923Z,3450
2018-05-15T11:53:38.854Z,3470
2018-05-15T11:54:39.433Z,3495
2018-05-15T11:55:42.714Z,3390
2018-05-15T11:56:40.585Z,3350
2018-05-15T11:57:41.160Z,3300
2018-05-15T11:58:41.762Z,3115
2018-05-15T11:59:42.417Z,3210
2018-05-15T12:00:42.920Z,3355
2018-05-15T12:01:43.501Z,3395
2018-05-15T12:02:44.423Z,3365
2018-05-15T12:03:44.917Z,2820
2018-05-15T12:04:45.480Z,3250
2018-05-15T12:05:46.101Z,3055
2018-05-15T12:06:46.715Z,3110
2018-05-15T12:07:47.347Z,3315
2018-05-15T12:08:47.933Z,1000
2018-05-15T12:09:48.552Z,3145
2018-05-15T12:10:49.130Z,3270
2018-05-15T12:11:49.735Z,3340
2018-05-15T12:12:50.402Z,3310
2018-05-15T12:13:50.902Z,3325
2018-05-15T12:14:51.483Z,3285
2018-05-15T12:15:52.088Z,3240
2018-05-15T12:16:52.678Z,3205
2018-05-15T12:17:53.256Z,3070
2018-05-15T12:18:53.865Z,3285
2018-05-15T12:19:54.438Z,3265
2018-05-15T12:20:55.046Z,3355
2018-05-15T12:21:55.633Z,3325
2018-05-15T12:22:56.269Z,3305
2018-05-15T12:23:56.866Z,3360
2018-05-15T12:24:57.500Z,3140
2018-05-15T12:25:58.158Z,3235
2018-05-15T12:26:58.855Z,3360
2018-05-15T12:27:59.534Z,2885
2018-05-15T12:29:00.075Z,1005
2018-05-15T12:30:00.654Z,2890
2018-05-15T12:31:01.282Z,1080
2018-05-15T12:32:01.926Z,1350
2018-05-15T12:33:02.557Z,2595
2018-05-15T12:34:03.150Z,1050
2018-05-15T12:35:03.760Z,1055
2018-05-15T12:36:04.360Z,1250
2018-05-15T12:37:04.985Z,2675
2018-05-15T12:38:05.661Z,3185
2018-05-15T12:39:06.315Z,3185
2018-05-15T12:40:06.925Z,3250
2018-05-15T12:41:07.548Z,3240
2018-05-15T12:42:08.286Z,3280
2018-05-15T12:43:08.758Z,3305
2018-05-15T12:44:09.355Z,3260
2018-05-15T12:45:09.970Z,3325
2018-05-15T12:46:10.556Z,3290
2018-05-15T12:47:11.142Z,3275
2018-05-15T12:48:11.787Z,3285
2018-05-15T12:49:12.341Z,3180
2018-05-15T12:50:12.930Z,3260
2018-05-15T12:51:13.535Z,3240
2018-05-15T12:52:14.104Z,3225
2018-05-15T12:53:14.681Z,3185
2018-05-15T12:54:15.355Z,3240
2018-05-15T12:55:15.850Z,3205
2018-05-15T12:56:16.425Z,3165
2018-05-15T12:57:17.011Z,2285
2018-05-15T12:58:17.602Z,1410
2018-05-15T12:59:18.193Z,1230
2018-05-15T13:00:18.778Z,1220
2018-05-15T13:01:19.354Z,1160
2018-05-15T13:02:19.933Z,1195
2018-05-15T13:03:20.514Z,1215
2018-05-15T13:04:21.091Z,1225
2018-05-15T13:05:21.697Z,1220
2018-05-15T13:06:22.344Z,1230
2018-05-15T13:07:23.033Z,1220
2018-05-15T13:08:23.707Z,1235
2018-05-15T13:09:24.315Z,1290
2018-05-15T13:10:24.903Z,1285
2018-05-15T13:11:25.498Z,985
2018-05-15T13:12:26.093Z,1960
2018-05-15T13:13:26.681Z,2670
2018-05-15T13:14:27.251Z,2880
2018-05-15T13:15:27.834Z,945
2018-05-15T13:16:28.434Z,865
2018-05-15T13:17:29.036Z,2925
2018-05-15T13:18:29.658Z,2810
2018-05-15T13:19:30.195Z,3180
2018-05-15T13:20:30.777Z,3150
2018-05-15T13:21:31.363Z,3090
2018-05-15T13:22:31.967Z,3095
2018-05-15T13:23:32.582Z,3100
2018-05-15T13:24:33.231Z,2670
2018-05-15T13:25:33.698Z,2970
2018-05-15T13:26:34.281Z,3095
2018-05-15T13:27:34.864Z,3005
2018-05-15T13:28:35.441Z,3205
2018-05-15T13:29:36.040Z,3205
2018-05-15T13:30:36.634Z,3195
2018-05-15T13:31:37.212Z,3235
2018-05-15T13:32:37.798Z,3205
2018-05-15T13:33:38.379Z,1725
2018-05-15T13:34:38.967Z,2790
2018-05-15T13:35:39.584Z,3045
2018-05-15T13:36:40.162Z,1330
2018-05-15T13:37:40.772Z,940
2018-05-15T13:38:41.352Z,895
2018-05-15T13:39:41.942Z,1635
2018-05-15T13:40:42.517Z,875
2018-05-15T13:41:43.092Z,810
2018-05-15T13:42:43.664Z,820
2018-05-15T13:43:44.242Z,915
2018-05-15T13:44:44.799Z,910
2018-05-15T13:45:45.371Z,875
2018-05-15T13:46:45.940Z,845
2018-05-15T13:47:46.506Z,840
2018-05-15T13:48:47.082Z,770
2018-05-15T13:49:47.659Z,705
2018-05-15T13:50:48.225Z,720
2018-05-15T13:51:48.805Z,650
2018-05-15T13:52:49.364Z,550
2018-05-15T13:53:49.943Z,550
2018-05-15T13:54:50.511Z,565
2018-05-15T13:55:51.073Z,615
2018-05-15T13:56:51.644Z,690
2018-05-15T13:57:52.210Z,885
2018-05-15T13:58:52.777Z,870